Date,TemperatureHighF,TemperatureAvgF,TemperatureLowF,DewpointHighF,DewpointAvgF,DewpointLowF,HumidityHigh,HumidityAvg,HumidityLow,PressureMaxIn,PressureMinIn,WindSpeedMaxMPH,WindSpeedAvgMPH,GustSpeedMaxMPH,PrecipitationSumIn
2013-1-1,58.0,47.1,38.0,40.0,32.8,21.0,81,59,35,30.21,30.06,4,1,7,0.00
2013-1-2,64.0,51.3,41.0,35.0,26.9,19.0,60,39,26,30.12,30.03,4,1,10,0.00
2013-1-3,68.0,53.2,41.0,35.0,29.2,22.0,57,40,26,30.17,30.06,3,1,11,0.00
2013-1-4,55.0,49.0,45.0,28.0,25.1,21.0,48,39,27,30.23,30.16,2,1,7,0.00
2013-1-5,63.0,50.8,43.0,39.0,30.7,25.0,73,47,28,30.27,30.15,2,0,6,0.00
2013-1-6,53.0,45.5,40.0,46.0,42.2,38.0,98,89,68,30.17,30.00,5,1,15,0.05
2013-1-7,63.0,51.8,40.0,44.0,39.7,29.0,97,65,41,30.04,29.99,4,1,7,0.04
2013-1-8,76.0,59.0,44.0,45.0,35.2,27.0,57,42,18,30.10,30.02,4,1,7,0.00
2013-1-9,56.0,54.7,52.0,38.0,37.8,37.0,57,52,50,30.09,30.08,1,0,4,0.00
2013-1-10,51.0,45.5,42.0,32.0,26.9,22.0,64,49,33,30.08,29.94,10,2,20,0.00
2013-1-11,52.0,42.2,33.0,28.0,25.0,23.0,71,51,35,30.16,30.07,6,1,18,0.00
2013-1-12,53.0,43.6,35.0,30.0,25.4,21.0,68,50,31,30.14,30.05,6,1,16,0.00
2013-1-13,53.0,43.2,37.0,33.0,25.8,15.0,67,51,29,30.15,30.01,5,1,15,0.00
2013-1-14,53.0,41.6,32.0,29.0,16.9,8.0,64,38,21,30.32,30.11,5,1,10,0.00
2013-1-15,61.0,46.0,33.0,32.0,24.1,16.0,62,43,25,30.42,30.31,3,1,10,0.00
2013-1-16,69.0,53.4,39.0,35.0,30.1,26.0,60,42,24,30.34,30.15,5,1,7,0.00
2013-1-17,77.0,58.6,44.0,35.0,27.6,19.0,58,33,16,30.18,30.05,4,1,11,0.00
2013-1-18,77.0,61.5,51.0,34.0,23.2,16.0,38,23,14,30.14,30.05,5,1,9,0.00
2013-1-19,78.0,61.9,51.0,33.0,19.1,14.0,31,19,12,30.17,30.06,5,1,11,0.00
2013-1-20,80.0,63.0,54.0,32.0,18.7,12.0,28,18,11,30.14,30.01,3,1,9,0.00
2013-1-21,81.0,64.6,51.0,30.0,17.0,11.0,28,16,9,30.10,29.99,4,1,8,0.00
2013-1-22,79.0,63.0,53.0,33.0,19.3,10.0,27,19,12,30.09,30.00,4,1,10,0.00
2013-1-23,71.0,59.8,51.0,48.0,31.2,18.0,90,35,20,30.10,29.99,5,1,13,0.09
2013-1-24,59.0,55.0,51.0,58.0,54.1,48.0,100,97,87,30.15,30.06,4,0,7,1.55
2013-1-25,59.0,56.1,54.0,59.0,55.8,54.0,100,99,94,30.13,29.96,4,0,5,0.24
2013-1-26,68.0,56.9,51.0,60.0,54.5,51.0,100,93,69,29.96,29.86,4,0,7,0.07
2013-1-27,61.0,52.2,48.0,52.0,39.2,25.0,100,67,30,30.02,29.91,8,1,22,0.02
2013-1-28,57.0,49.7,42.0,32.0,28.2,25.0,64,44,33,30.16,30.02,9,2,21,0.01
2013-1-29,60.0,47.6,38.0,39.0,33.9,30.0,77,60,39,30.19,30.11,3,0,11,0.00
2013-1-31,76.0,63.6,46.0,47.0,41.2,37.0,72,46,31,30.21,30.10,4,1,10,0.00
2013-2-1,75.0,62.2,55.0,49.0,42.3,38.0,60,49,28,30.17,30.09,5,1,11,0.00
2013-2-2,70.0,62.2,55.0,50.0,43.0,38.0,64,50,34,30.19,30.12,3,0,8,0.01
2013-2-3,75.0,61.1,49.0,51.0,45.1,40.0,88,57,38,30.14,29.99,3,1,7,0.01
2013-2-4,72.0,57.0,47.0,51.0,44.0,35.0,91,64,41,30.07,29.96,3,0,7,0.00
2013-2-5,60.0,50.3,43.0,52.0,47.9,43.0,100,92,72,30.07,29.97,4,0,10,0.01
2013-2-6,64.0,51.8,44.0,50.0,46.9,42.0,99,85,60,30.09,29.98,3,1,7,0.01
2013-2-7,59.0,48.0,40.0,49.0,42.3,33.0,96,81,68,30.12,29.94,5,1,12,0.00
2013-2-8,51.0,44.1,39.0,41.0,37.3,30.0,94,78,55,29.94,29.83,8,2,17,0.02
2013-2-9,57.0,46.2,37.0,39.0,34.1,30.0,79,64,42,30.06,29.89,7,2,15,0.02
2013-2-10,55.0,45.5,39.0,43.0,36.7,29.0,92,72,55,30.06,29.98,5,1,11,0.00
2013-2-11,61.0,48.8,38.0,40.0,35.4,31.0,90,62,34,30.22,30.04,5,2,15,0.00
2013-2-12,63.0,50.9,43.0,40.0,32.3,26.0,68,50,32,30.32,30.21,5,2,13,0.00
2013-2-13,47.0,44.0,42.0,35.0,33.5,32.0,72,66,58,30.24,30.22,2,0,5,0.00
2013-2-15,80.0,70.6,63.0,35.0,27.1,21.0,28,20,13,30.18,30.10,8,2,15,0.00
2013-2-16,80.0,64.1,51.0,35.0,23.8,17.0,35,22,12,30.16,29.97,3,0,9,0.00
2013-2-17,71.0,56.4,46.0,49.0,36.7,22.0,98,53,27,29.99,29.88,4,0,10,0.00
2013-2-18,62.0,50.4,42.0,48.0,45.8,42.0,100,85,61,30.03,29.91,5,1,11,0.00
2013-2-19,55.0,47.9,39.0,47.0,43.7,35.0,96,86,67,29.95,29.69,8,1,20,0.01
2013-2-20,60.0,48.0,38.0,37.0,30.2,26.0,87,52,28,29.96,29.69,9,2,29,0.01
2013-2-21,60.0,49.1,37.0,41.0,33.0,26.0,67,54,44,30.08,29.95,8,1,15,0.00
2013-2-22,65.0,51.5,42.0,43.0,33.6,24.0,83,52,31,30.16,30.08,4,1,10,0.00
2013-2-23,67.0,52.3,38.0,48.0,34.8,21.0,81,53,28,30.14,29.88,11,2,23,0.00
2013-2-24,66.0,53.6,45.0,33.0,26.3,17.0,50,36,16,30.19,29.98,6,1,14,0.00
2013-2-25,67.0,53.5,43.0,43.0,29.8,18.0,87,44,22,30.21,30.03,4,1,10,0.00
2013-2-26,72.0,57.3,41.0,34.0,27.1,17.0,71,33,19,30.12,29.98,5,1,13,0.00
2013-2-27,71.0,57.8,51.0,27.0,21.9,15.0,34,25,17,30.28,30.12,5,1,12,0.00
2013-2-28,76.0,62.8,46.0,33.0,25.9,19.0,38,25,15,30.32,30.23,6,1,12,0.00
2013-3-1,84.0,71.0,58.0,31.0,27.7,24.0,28,21,13,30.30,30.16,5,2,14,0.00
2013-3-2,76.0,65.6,59.0,40.0,31.4,26.0,38,28,24,30.20,30.07,3,1,5,0.00
2013-3-3,73.0,58.1,47.0,50.0,42.6,30.0,98,60,31,30.10,29.94,5,1,13,0.00
2013-3-4,68.0,53.1,42.0,54.0,47.6,42.0,100,84,51,30.07,29.98,4,1,11,0.01
2013-3-5,59.0,49.8,43.0,52.0,46.9,43.0,100,91,72,30.10,30.00,5,1,13,0.01
2013-3-6,55.0,48.7,45.0,50.0,46.2,43.0,97,91,79,30.12,29.98,3,0,6,0.02
2013-3-7,59.0,50.0,44.0,48.0,44.4,39.0,96,82,51,29.99,29.82,5,1,12,0.39
2013-3-8,55.0,47.1,39.0,48.0,43.3,37.0,99,87,71,29.99,29.75,6,1,14,0.99
2013-3-9,67.0,52.8,40.0,44.0,37.9,30.0,94,61,33,30.19,29.98,6,1,22,0.01
2013-3-10,73.0,61.4,45.0,40.0,35.1,30.0,65,40,21,30.27,30.15,6,1,16,0.01
2013-3-11,76.0,63.4,50.0,45.0,38.9,30.0,67,42,25,30.17,30.03,6,1,11,0.00
2013-3-12,82.0,65.7,50.0,49.0,42.7,36.0,68,45,29,30.08,30.00,4,1,9,0.00
2013-3-13,67.0,63.7,60.0,44.0,38.5,36.0,51,40,35,30.08,30.06,4,2,9,0.00
2013-3-14,87.0,70.6,54.0,50.0,43.7,36.0,59,39,22,30.08,29.99,6,1,12,0.00
2013-3-15,79.0,62.5,50.0,55.0,48.4,43.0,88,62,32,30.01,29.91,4,1,12,0.00
2013-3-16,71.0,55.4,46.0,55.0,50.5,46.0,100,85,58,29.96,29.85,5,1,10,0.00
2013-3-17,76.0,55.1,43.0,55.0,49.3,43.0,99,83,38,29.97,29.88,4,1,10,0.01
2013-3-18,63.0,52.6,47.0,53.0,49.8,47.0,100,91,68,30.06,29.96,4,1,10,0.01
2013-3-19,71.0,57.0,46.0,55.0,51.3,46.0,99,83,54,30.10,30.01,5,1,10,0.01
2013-3-20,72.0,59.5,51.0,56.0,52.2,50.0,98,79,54,30.07,29.94,8,1,14,0.00
2013-3-21,77.0,62.7,51.0,55.0,46.9,31.0,91,60,31,29.94,29.77,8,1,24,0.00
2013-3-22,77.0,65.9,53.0,41.0,25.6,8.0,46,23,10,29.90,29.76,13,3,25,0.00
2013-3-23,73.0,60.2,47.0,52.0,34.7,10.0,90,43,13,29.99,29.88,8,1,17,0.00
2013-3-24,78.0,60.2,45.0,47.0,39.1,29.0,92,52,18,30.00,29.88,5,0,12,0.00
2013-3-25,74.0,60.4,48.0,48.0,41.2,35.0,76,51,31,29.96,29.88,4,0,11,0.00
2013-3-26,70.0,57.0,47.0,52.0,45.8,39.0,94,67,50,29.94,29.87,4,0,10,0.00
2013-3-27,68.0,55.0,45.0,54.0,49.8,44.0,99,84,57,30.02,29.90,5,1,13,0.00
2013-3-28,71.0,55.7,45.0,56.0,50.6,44.0,99,85,56,30.06,29.99,4,0,11,0.01
2013-3-29,77.0,59.5,46.0,57.0,51.6,45.0,99,78,45,30.09,30.00,5,1,11,0.01
2013-3-30,73.0,58.7,51.0,55.0,49.8,-99.9,99,78,43,30.11,30.02,4,1,14,0.00
2013-3-31,62.0,55.5,50.0,59.0,53.3,49.0,98,92,79,30.10,30.03,5,1,12,0.19
2013-4-1,63.0,54.6,48.0,55.0,51.1,47.0,99,88,70,30.14,30.05,8,1,17,0.04
2013-4-2,73.0,57.9,46.0,56.0,51.3,45.0,100,81,50,30.07,29.97,4,1,11,0.01
2013-4-3,79.0,60.0,47.0,57.0,51.9,45.0,100,78,32,30.06,29.97,5,1,10,0.01
2013-4-4,72.0,57.6,50.0,59.0,53.3,50.0,100,87,59,30.09,29.98,8,1,17,0.01
2013-4-5,71.0,58.6,51.0,57.0,53.9,51.0,100,86,62,30.08,29.95,4,1,11,0.00
2013-4-6,78.0,62.1,49.0,58.0,50.2,41.0,99,70,28,30.07,29.91,6,1,16,0.00
2013-4-7,80.0,66.6,54.0,52.0,47.0,38.0,79,52,29,29.95,29.75,3,0,11,0.00
2013-4-8,63.0,57.3,48.0,50.0,38.5,30.0,94,54,32,29.80,29.68,14,4,38,0.00
2013-4-9,74.0,63.6,51.0,36.0,28.4,22.0,44,27,14,29.99,29.80,9,2,24,0.00
2013-4-10,66.0,61.0,58.0,37.0,31.0,26.0,45,33,23,30.01,29.96,2,0,11,0.00
2013-4-11,74.0,61.8,50.0,50.0,42.6,35.0,79,51,32,29.96,29.74,3,0,9,0.00
2013-4-12,74.0,57.9,47.0,55.0,50.1,45.0,94,77,51,29.84,29.77,5,1,11,0.00
2013-4-13,62.0,53.9,48.0,55.0,51.1,47.0,100,91,76,29.89,29.81,4,0,10,0.00
2013-4-14,57.0,54.4,52.0,54.0,52.0,51.0,99,92,84,29.86,29.80,3,0,7,0.01
2013-4-15,64.0,55.0,48.0,53.0,49.7,45.0,95,83,68,29.87,29.80,4,0,11,0.01
2013-4-16,67.0,55.6,42.0,45.0,32.0,17.0,96,49,17,29.99,29.83,12,2,25,0.01
2013-4-17,71.0,60.6,50.0,36.0,25.7,19.0,37,27,17,30.12,29.99,6,1,23,0.01
2013-4-18,75.0,64.8,54.0,29.0,24.1,18.0,36,22,13,30.19,30.12,8,2,19,0.00
2013-4-19,83.0,70.6,55.0,40.0,29.0,21.0,45,23,11,30.16,29.96,8,1,15,0.00
2013-4-20,89.0,73.3,57.0,51.0,40.8,31.0,59,33,18,29.99,29.87,6,1,14,0.00
2013-4-21,84.0,68.4,52.0,50.0,45.6,39.0,88,48,25,29.98,29.91,5,0,11,0.00
2013-4-22,74.0,58.2,48.0,56.0,51.2,47.0,100,80,42,29.98,29.86,5,1,12,0.00
2013-4-23,73.0,59.4,52.0,55.0,52.1,50.0,96,79,51,29.95,29.85,4,0,11,0.00
2013-4-24,53.0,52.0,50.0,52.0,51.0,49.0,96,96,95,29.92,29.88,1,0,3,0.00
2013-4-25,71.0,59.1,50.0,53.0,49.1,46.0,97,72,45,30.10,29.93,7,1,15,0.00
2013-4-26,77.0,61.2,47.0,54.0,49.8,45.0,91,69,42,30.13,30.07,5,1,12,0.00
2013-4-27,75.0,55.8,50.0,55.0,50.8,48.0,95,85,50,30.11,30.09,2,0,4,0.00
2013-4-28,73.0,56.7,49.0,58.0,52.6,48.0,100,87,55,29.98,29.82,5,0,10,0.00
2013-4-29,76.0,59.1,49.0,59.0,53.9,49.0,100,85,55,29.88,29.76,5,1,11,0.01
2013-4-30,63.0,56.5,52.0,56.0,53.4,50.0,99,90,74,29.87,29.80,3,0,7,0.01
2013-5-1,76.0,62.9,52.0,57.0,53.9,50.0,94,75,49,30.06,29.87,4,1,12,0.01
2013-5-2,95.0,73.9,48.0,53.0,37.1,16.0,97,40,6,30.11,30.02,8,1,14,0.01
2013-5-3,96.0,80.1,64.0,39.0,25.5,18.0,28,14,7,30.04,29.77,6,2,15,0.00
2013-5-4,75.0,64.6,55.0,56.0,48.7,31.0,91,59,22,29.80,29.71,4,1,12,0.00
2013-5-5,65.0,58.0,54.0,53.0,51.2,50.0,89,78,65,29.90,29.79,5,1,13,0.00
2013-5-6,63.0,57.1,54.0,56.0,52.8,50.0,99,86,69,29.99,29.85,4,0,11,0.25
2013-5-7,67.0,59.7,53.0,53.0,51.1,47.0,94,75,51,30.03,29.96,9,2,16,0.00
2013-5-8,71.0,59.3,49.0,53.0,50.1,47.0,96,74,44,30.07,30.03,6,1,15,0.00
2013-5-9,74.0,61.3,49.0,56.0,51.9,47.0,94,73,50,30.07,29.98,5,1,12,0.00
2013-5-10,86.0,65.1,52.0,59.0,53.1,-99.9,96,72,38,30.08,29.97,5,1,11,0.00
2013-5-11,90.0,68.9,54.0,61.0,55.0,-99.9,98,69,31,30.05,29.97,6,0,12,0.00
2013-5-12,99.0,77.8,58.0,61.0,55.3,49.0,94,53,19,30.04,29.91,7,1,16,0.00
2013-5-13,99.0,83.0,67.0,54.0,46.9,38.0,54,30,16,29.97,29.89,6,1,19,0.00
2013-5-14,83.0,66.2,53.0,57.0,53.5,50.0,95,67,37,29.96,29.87,7,1,13,0.00
2013-5-15,74.0,62.7,54.0,57.0,53.0,51.0,91,72,53,29.99,29.91,4,1,11,0.00
2013-5-16,72.0,57.0,51.0,57.0,36.9,-99.9,95,78,58,29.96,29.87,4,1,10,0.00
2013-5-17,73.0,61.5,52.0,57.0,50.3,-99.9,95,76,53,29.96,29.89,5,1,13,0.00
2013-5-18,77.0,63.5,50.0,56.0,52.0,48.0,95,69,42,30.02,29.93,3,1,10,0.00
2013-5-19,84.0,67.5,51.0,56.0,50.3,42.0,87,57,32,29.97,29.83,6,1,12,0.00
2013-5-20,91.0,70.0,52.0,58.0,51.6,45.0,92,58,21,29.93,29.85,5,1,15,0.00
2013-5-21,78.0,64.1,55.0,59.0,54.7,48.0,92,73,53,29.89,29.80,4,1,2,0.00
2013-5-22,76.0,62.5,52.0,57.0,53.1,48.0,95,74,50,29.83,29.73,5,1,13,0.00
2013-5-23,73.0,61.3,50.0,54.0,48.9,43.0,89,65,43,29.91,29.80,5,1,13,0.00
2013-5-24,73.0,61.2,49.0,54.0,48.2,42.0,83,64,44,29.96,29.88,7,2,18,0.00
2013-5-25,75.0,61.5,49.0,54.0,50.0,45.0,92,68,47,30.00,29.93,6,1,13,0.00
2013-5-26,76.0,62.6,50.0,55.0,50.8,47.0,91,68,46,30.02,29.96,4,0,10,0.00
2013-5-27,85.0,65.5,51.0,57.0,52.3,47.0,91,65,34,29.98,29.81,4,0,11,0.00
2013-5-28,89.0,72.9,57.0,58.0,50.3,41.0,80,49,21,29.84,29.71,7,1,17,0.00
2013-5-29,91.0,76.2,60.0,57.0,51.5,44.0,68,44,28,29.80,29.68,4,0,16,0.00
2013-5-30,86.0,71.3,56.0,58.0,53.4,44.0,90,56,33,29.85,29.73,5,1,14,0.00
2013-5-31,84.0,67.6,55.0,60.0,55.2,50.0,92,67,43,29.90,29.79,4,0,10,0.00
2013-6-1,85.0,62.8,55.0,61.0,54.8,52.0,95,77,44,29.84,29.79,2,0,11,0.00
2013-6-2,58.0,57.2,57.0,57.0,56.0,55.0,96,95,92,29.79,29.76,0,0,0,0.00
2013-6-20,71.0,71.0,71.0,53.0,53.0,53.0,53,53,53,29.81,29.81,0,0,0,0.00
2013-6-21,86.0,83.2,78.0,55.0,52.8,50.0,38,35,33,29.87,29.83,2,0,8,0.00
2013-6-22,84.0,74.7,57.0,61.0,58.1,50.0,85,58,44,29.91,29.81,2,0,8,0.00
2013-6-23,73.0,64.0,56.0,59.0,56.8,53.0,95,78,61,29.88,29.79,4,0,10,0.00
2013-6-24,72.0,63.1,55.0,60.0,56.8,53.0,95,81,62,29.93,29.81,3,0,9,0.00
2013-6-25,82.0,69.9,57.0,62.0,58.9,55.0,93,70,50,29.98,29.88,5,1,11,0.00
2013-6-26,92.0,75.9,62.0,64.0,60.4,58.0,87,62,37,29.98,29.91,5,1,12,0.00
2013-6-27,98.0,78.9,65.0,64.0,61.2,59.0,83,58,31,30.02,29.95,5,1,15,0.00
2013-6-28,98.0,81.1,64.0,64.0,61.3,58.0,85,55,29,29.99,29.86,5,1,11,0.00
2013-6-29,104.0,81.9,68.0,64.0,60.8,59.0,78,53,26,29.88,29.74,4,0,11,0.00
2013-6-30,104.0,84.3,70.0,63.0,58.8,52.0,75,45,21,29.82,29.72,3,0,11,0.00
2013-7-1,97.0,76.9,64.0,67.0,62.0,59.0,91,63,29,29.88,29.80,4,0,11,0.00
2013-7-2,92.0,76.8,65.0,65.0,60.9,56.0,86,62,30,29.99,29.87,6,1,14,0.00
2013-7-3,90.0,72.7,61.0,65.0,61.3,58.0,94,71,35,29.91,29.79,4,1,13,0.00
2013-7-4,89.0,73.1,61.0,67.0,61.1,54.0,100,71,33,29.83,29.74,4,1,12,0.00
2013-7-5,87.0,70.0,61.0,66.0,62.6,60.0,98,80,50,29.84,29.75,5,0,12,0.00
2013-7-6,85.0,70.3,61.0,67.0,62.8,59.0,99,80,53,29.83,29.73,4,1,10,0.00
2013-7-7,90.0,71.3,59.0,66.0,60.8,58.0,100,74,39,29.86,29.77,5,1,12,0.01
2013-7-8,95.0,73.1,58.0,63.0,59.6,55.0,97,67,26,29.93,29.85,5,1,12,0.01
2013-7-9,97.0,77.8,66.0,61.0,58.1,51.0,75,53,29,29.98,29.91,4,0,11,0.00
2013-7-10,85.0,72.0,63.0,63.0,58.0,-99.9,84,65,47,29.98,29.90,5,0,10,0.00
2013-7-11,85.0,74.4,66.0,68.0,64.1,61.0,89,71,54,29.97,29.88,3,0,11,0.00
2013-7-12,89.0,69.8,61.0,67.0,61.9,56.0,99,79,36,29.93,29.85,6,0,12,0.00
2013-7-13,90.0,69.1,58.0,64.0,60.2,57.0,99,77,37,29.96,29.84,4,0,11,0.00
2013-7-14,91.0,72.8,59.0,63.0,59.0,57.0,94,67,33,29.91,29.79,5,0,12,0.00
2013-7-15,90.0,70.4,60.0,62.0,58.7,55.0,93,70,34,29.87,29.80,4,0,10,0.00
2013-7-16,90.0,68.2,56.0,60.0,55.9,48.0,97,70,25,29.97,29.85,5,0,13,0.00
2013-7-17,92.0,70.2,58.0,60.0,56.1,52.0,89,64,26,30.02,29.95,6,0,11,0.00
2013-7-18,91.0,69.4,57.0,60.0,56.8,54.0,92,68,31,29.98,29.85,4,1,12,0.00
2013-7-19,89.0,69.2,58.0,60.0,57.7,55.0,93,71,34,29.90,29.80,4,0,11,0.00
2013-7-20,87.0,69.8,57.0,65.0,59.6,55.0,93,73,47,29.88,29.81,4,1,13,0.00
2013-7-24,84.0,69.4,61.0,61.0,59.4,58.0,90,72,41,29.93,29.88,2,0,9,0.00
2013-7-25,86.0,66.2,58.0,64.0,59.6,57.0,100,82,47,30.00,29.92,4,0,12,0.00
2013-7-26,88.0,67.1,58.0,64.0,59.6,56.0,98,80,44,30.09,29.97,3,0,12,0.00
2013-7-27,87.0,70.0,59.0,64.0,60.0,57.0,95,73,42,30.00,29.86,4,1,12,0.00
2013-7-28,81.0,65.9,57.0,63.0,58.9,56.0,99,81,54,29.92,29.85,5,1,10,0.00
2013-7-29,80.0,65.2,59.0,63.0,59.0,57.0,96,82,54,30.02,29.91,4,0,15,0.00
2013-7-30,82.0,65.9,56.0,62.0,58.0,55.0,99,78,51,30.11,30.02,4,1,9,0.00
2013-7-31,80.0,64.8,55.0,61.0,57.5,54.0,99,79,53,30.10,29.98,5,1,11,0.00
2013-8-1,79.0,65.0,55.0,62.0,58.1,54.0,99,81,54,30.02,29.88,5,1,10,0.01
2013-8-2,83.0,65.5,55.0,63.0,58.1,54.0,99,80,47,29.96,29.89,5,1,11,0.01
2013-8-3,83.0,66.7,56.0,63.0,58.6,55.0,99,78,48,29.99,29.91,5,1,11,0.00
2013-8-4,84.0,66.6,54.0,62.0,56.7,53.0,100,75,40,30.01,29.91,4,1,12,0.01
2013-8-5,86.0,65.9,53.0,61.0,54.4,48.0,95,73,29,29.99,29.90,5,1,12,0.01
2013-8-6,82.0,65.9,54.0,61.0,57.1,53.0,100,76,45,30.03,29.95,5,1,12,0.01
2013-8-7,83.0,64.3,52.0,61.0,55.8,51.0,98,78,40,30.06,29.96,4,1,12,0.01
2013-8-8,83.0,65.5,55.0,59.0,55.7,52.0,93,74,40,29.98,29.89,5,1,13,0.01
2013-8-9,80.0,66.8,54.0,60.0,56.4,53.0,97,72,47,29.95,29.89,5,1,14,0.01
2013-8-10,82.0,66.4,54.0,60.0,56.7,51.0,92,73,47,30.01,29.94,4,1,12,0.01
2013-8-11,85.0,68.3,54.0,61.0,57.4,52.0,97,72,40,29.99,29.88,4,1,12,0.01
2013-8-12,85.0,67.0,56.0,62.0,57.8,54.0,97,76,44,29.97,29.88,6,1,11,0.01
2013-8-13,87.0,69.1,55.0,62.0,55.7,-99.9,96,70,42,29.97,29.86,4,1,10,0.01
2013-8-14,74.0,60.7,57.0,61.0,50.1,-99.9,92,77,56,29.92,29.83,2,0,12,0.01
2013-8-15,90.0,59.4,54.0,64.0,39.6,-99.9,97,68,34,29.94,29.87,4,0,9,0.01
2013-8-16,91.0,65.2,61.0,61.0,50.6,-99.9,88,69,30,29.95,29.89,2,0,11,0.00
2013-8-17,89.0,68.9,59.0,59.0,54.0,-99.9,88,65,31,29.94,29.80,3,0,9,0.00
2013-8-18,88.0,67.6,59.0,59.0,56.5,52.0,90,71,32,29.90,29.79,2,0,10,0.00
2013-8-19,83.0,64.0,57.0,63.0,47.2,-99.9,97,74,48,29.94,29.85,4,1,11,0.00
2013-8-20,89.0,66.3,56.0,61.0,54.3,-99.9,97,74,31,29.93,29.84,4,1,10,0.01
2013-8-21,91.0,68.5,56.0,59.0,54.0,44.0,92,67,21,29.92,29.83,6,1,11,0.01
2013-8-22,94.0,74.0,58.0,55.0,51.2,38.0,83,52,14,29.91,29.81,4,1,13,0.00
2013-8-23,93.0,71.7,59.0,56.0,50.9,44.0,70,51,19,29.87,29.73,3,0,11,0.00
2013-8-24,92.0,71.1,60.0,59.0,50.9,-99.9,78,55,23,29.86,29.76,5,1,10,0.00
2013-8-25,92.0,72.0,59.0,57.0,50.6,44.0,78,52,21,29.92,29.83,5,1,12,0.00
2013-8-26,87.0,71.1,65.0,52.0,42.8,34.0,58,37,21,29.93,29.86,3,0,5,0.00
2013-8-27,91.0,76.0,72.0,58.0,49.3,44.0,47,39,32,29.86,29.80,5,0,11,0.00
2013-8-28,95.0,85.7,73.0,61.0,51.7,41.0,44,32,20,29.89,29.81,5,1,14,0.00
2013-8-29,99.0,89.8,76.0,58.0,53.4,48.0,53,31,20,29.94,29.87,5,1,12,0.00
2013-8-30,98.0,88.3,78.0,68.0,63.0,55.0,59,44,24,29.96,29.92,5,1,14,0.00
2013-8-31,94.0,80.8,73.0,70.0,64.2,-99.9,74,60,45,29.97,29.88,5,1,12,0.00
2013-9-1,90.0,78.3,70.0,72.0,67.4,64.0,85,70,54,29.93,29.86,5,1,10,0.00
2013-9-2,94.0,77.6,67.0,69.0,65.6,64.0,92,69,40,29.93,29.80,5,1,12,0.00
2013-9-3,97.0,82.2,69.0,65.0,61.4,58.0,83,53,30,29.90,29.82,5,1,12,0.00
2013-9-4,98.0,83.9,69.0,60.0,57.3,55.0,65,43,26,29.89,29.84,5,1,15,0.00
2013-9-5,100.0,85.6,69.0,59.0,53.2,43.0,69,37,16,29.89,29.82,3,1,11,0.00
2013-9-6,102.0,84.4,71.0,57.0,49.6,43.0,59,33,18,29.88,29.79,4,1,12,0.00
2013-9-7,100.0,76.4,68.0,58.0,45.2,-99.9,69,39,15,29.86,29.79,6,1,20,0.00
2013-9-8,90.0,73.2,63.0,58.0,54.9,50.0,82,56,27,29.85,29.74,4,1,11,0.00
2013-9-9,84.0,67.5,59.0,60.0,56.9,55.0,92,72,38,29.81,29.72,4,1,11,0.00
2013-9-10,78.0,65.1,57.0,61.0,57.9,56.0,96,79,53,29.93,29.80,5,1,11,0.00
2013-9-11,81.0,66.6,56.0,61.0,57.9,54.0,96,76,49,30.00,29.91,5,1,12,0.00
2013-9-12,61.0,59.3,58.0,57.0,55.7,55.0,90,88,86,29.93,29.91,0,0,0,0.00
2013-9-16,89.0,77.4,65.0,56.0,53.2,50.0,70,45,27,29.78,29.73,1,0,10,0.00
2013-9-17,85.0,68.7,56.0,58.0,53.0,47.0,82,60,35,29.81,29.71,6,0,14,0.00
2013-9-18,63.0,59.3,55.0,57.0,54.2,52.0,91,84,72,29.78,29.74,0,0,1,0.00
2013-9-19,82.0,66.0,55.0,61.0,57.6,52.0,94,77,49,29.82,29.74,4,1,12,0.01
2013-9-20,73.0,63.2,57.0,61.0,58.3,55.0,96,85,65,29.89,29.81,5,1,13,0.01
2013-9-21,76.0,63.8,57.0,60.0,55.6,-99.9,91,78,53,29.91,29.78,6,1,13,0.00
2013-9-22,84.0,66.8,50.0,55.0,47.8,35.0,95,58,28,29.85,29.76,3,1,11,0.01
2013-9-23,95.0,75.3,58.0,43.0,38.9,34.0,49,30,14,29.88,29.81,5,1,13,0.01
2013-9-24,90.0,76.4,63.0,52.0,46.4,34.0,65,37,19,29.91,29.82,4,1,11,0.00
2013-9-25,78.0,66.0,54.0,57.0,51.7,47.0,87,62,41,29.83,29.66,5,0,11,0.00
2013-9-26,77.0,63.9,54.0,51.0,40.5,28.0,78,47,18,29.88,29.70,6,1,19,0.00
2013-9-27,81.0,73.6,61.0,32.0,28.7,26.0,28,19,15,30.01,29.88,5,1,16,0.00
2013-9-28,89.0,77.6,64.0,35.0,27.4,-99.9,31,18,11,30.04,29.97,2,0,7,0.00
2013-9-29,89.0,72.9,58.0,44.0,36.4,28.0,45,28,13,30.04,29.96,2,0,10,0.00
2013-9-30,90.0,72.4,58.0,53.0,41.8,33.0,62,35,18,29.98,29.83,3,0,9,0.00
2013-10-1,78.0,67.6,61.0,56.0,53.8,52.0,74,63,44,29.90,29.85,0,0,4,0.00
2013-10-2,74.0,63.8,56.0,58.0,55.6,51.0,93,76,56,29.97,29.86,6,1,12,0.00
2013-10-3,75.0,63.1,53.0,58.0,54.9,51.0,97,77,53,29.92,29.81,5,0,12,0.01
2013-10-4,87.0,67.1,50.0,53.0,32.8,11.0,92,45,6,30.04,29.87,7,0,17,0.01
2013-10-5,94.0,76.6,64.0,33.0,20.3,9.0,24,13,5,30.13,30.03,4,1,14,0.00
2013-10-6,94.0,77.2,63.0,31.0,20.9,13.0,23,13,5,30.09,29.98,5,1,15,0.00
2013-10-7,86.0,69.0,54.0,53.0,40.9,20.0,87,45,13,29.97,29.88,3,0,10,0.00
2013-10-8,73.0,60.0,50.0,55.0,49.6,37.0,89,70,51,29.92,29.80,5,1,12,0.00
2013-10-9,62.0,55.4,48.0,53.0,47.8,41.0,87,76,54,29.81,29.67,8,2,19,0.10
2013-10-10,67.0,54.6,45.0,52.0,44.8,-99.9,89,73,47,30.01,29.78,4,0,12,0.02
2013-10-11,74.0,58.8,48.0,53.0,49.9,44.0,93,75,44,30.03,29.93,4,0,9,0.02
2013-10-12,77.0,60.8,50.0,54.0,47.2,-99.9,93,67,32,29.96,29.88,4,0,10,0.00
2013-10-13,69.0,57.4,48.0,55.0,50.8,45.0,93,80,57,30.01,29.91,6,1,12,0.00
2013-10-14,85.0,65.0,50.0,52.0,45.2,37.0,94,57,19,30.02,29.91,5,1,11,0.01
2013-10-15,87.0,77.4,64.0,36.0,31.1,28.0,27,19,13,29.96,29.88,4,1,14,0.00
2013-10-16,87.0,75.6,64.0,31.0,25.0,17.0,24,16,8,30.07,29.98,4,1,14,0.00
2013-10-17,83.0,74.7,58.0,52.0,38.7,30.0,73,32,15,30.02,29.91,5,1,12,0.00
2013-10-18,84.0,72.4,55.0,49.0,41.5,30.0,59,34,20,30.00,29.93,4,1,9,0.00
2013-10-19,89.0,75.1,61.0,39.0,30.6,-99.9,41,22,12,30.01,29.95,5,1,13,0.00
2013-10-20,79.0,64.4,55.0,55.0,47.8,27.0,93,59,33,29.97,29.88,4,1,11,0.00
2013-10-21,80.0,59.5,46.0,54.0,49.9,45.0,97,75,32,29.96,29.89,4,1,11,0.01
2013-10-22,77.0,61.4,50.0,55.0,51.0,43.0,93,71,45,29.98,29.88,4,0,11,0.01
2013-10-23,70.0,57.2,48.0,56.0,52.6,47.0,98,86,60,29.98,29.88,3,1,9,0.01
2013-10-24,71.0,59.4,55.0,56.0,53.3,52.0,92,81,56,30.03,29.94,5,1,13,0.01
2013-10-25,76.0,61.0,50.0,58.0,54.3,49.0,98,81,52,30.12,30.00,3,1,9,0.00
2013-10-26,87.0,66.1,52.0,54.0,43.3,-99.9,94,51,20,30.07,29.96,3,1,9,0.01
2013-10-27,77.0,64.2,54.0,56.0,52.4,31.0,93,69,36,29.95,29.78,4,1,10,0.00
2013-10-28,64.0,53.8,50.0,55.0,47.2,-99.9,92,82,52,29.91,29.76,6,1,17,0.08
2013-10-29,65.0,55.0,47.0,51.0,47.8,44.0,92,78,54,29.98,29.91,6,1,13,0.01
2013-11-5,75.0,65.9,54.0,33.0,29.2,23.0,34,26,15,30.16,30.06,6,2,14,0.00
2013-11-6,84.0,64.8,50.0,30.0,23.5,18.0,35,22,9,30.20,30.11,4,0,14,0.00
2013-11-7,86.0,72.7,57.0,32.0,24.9,21.0,27,18,10,30.11,30.01,5,1,11,0.00
2013-11-8,79.0,70.2,57.0,46.0,40.6,36.0,56,36,21,30.00,29.92,5,1,11,0.00
2013-11-9,76.0,61.7,51.0,53.0,35.2,-99.9,59,40,28,30.06,29.98,5,1,12,0.00
2013-11-10,81.0,64.2,50.0,50.0,38.0,22.0,71,42,11,30.11,30.03,5,1,13,0.00
2013-11-11,79.0,69.5,52.0,47.0,39.0,29.0,49,34,21,30.13,30.03,5,1,10,0.00
2013-11-12,83.0,72.1,59.0,42.0,36.4,32.0,46,28,17,30.16,30.07,4,0,9,0.00
2013-11-13,90.0,82.1,68.0,35.0,32.7,28.0,22,17,12,30.05,29.93,7,3,14,0.00
2013-11-14,90.0,78.0,58.0,44.0,35.0,30.0,55,24,13,29.92,29.74,4,1,11,0.00
2013-11-15,70.0,58.8,50.0,53.0,48.1,40.0,82,68,55,29.75,29.66,3,0,10,0.00
2013-11-16,67.0,55.3,51.0,53.0,45.4,-99.9,89,72,59,29.92,29.72,3,0,10,0.00
2013-11-17,69.0,57.1,48.0,51.0,47.8,44.0,91,73,52,30.07,29.92,5,0,10,0.00
2013-11-18,67.0,55.6,48.0,53.0,48.5,43.0,92,78,60,30.14,30.04,5,1,10,0.00
2013-11-19,67.0,56.0,48.0,54.0,48.9,46.0,94,78,59,30.08,29.93,4,0,9,0.00
2013-11-20,66.0,57.2,51.0,55.0,51.1,47.0,96,81,61,29.96,29.85,3,0,8,0.21
2013-11-21,67.0,57.5,52.0,58.0,54.0,49.0,97,89,70,29.87,29.80,3,0,10,0.60
2013-11-22,67.0,55.0,48.0,49.0,42.0,38.0,90,64,39,29.96,29.84,3,0,9,0.01
2013-11-23,66.0,54.8,47.0,43.0,37.8,-99.9,71,57,38,30.08,29.94,5,1,11,0.00
2013-11-24,67.0,56.8,48.0,44.0,40.6,38.0,70,56,37,30.20,30.06,5,1,11,0.00
2013-11-25,75.0,59.1,48.0,42.0,37.9,35.0,69,47,28,30.24,30.15,6,1,12,0.00
2013-11-26,74.0,61.4,48.0,47.0,38.1,33.0,57,43,28,30.17,30.04,4,0,11,0.00
2013-11-27,75.0,60.9,52.0,47.0,39.0,34.0,63,46,24,30.03,29.86,5,1,14,0.00
2013-11-28,67.0,57.0,48.0,50.0,43.7,36.0,84,63,32,30.03,29.87,7,1,15,0.00
2013-11-29,70.0,60.0,52.0,54.0,45.0,41.0,83,59,35,30.17,30.03,6,1,16,0.14
2013-11-30,76.0,63.4,54.0,45.0,38.0,-99.9,63,42,28,30.19,30.07,4,1,10,0.01
2013-12-1,82.0,70.7,58.0,37.0,33.0,30.0,44,26,15,30.23,30.11,5,1,9,0.00
2013-12-2,77.0,63.3,52.0,37.0,32.3,25.0,52,33,19,30.12,29.91,4,0,8,0.00
2013-12-3,69.0,55.4,48.0,51.0,42.6,31.0,80,63,47,29.89,29.71,3,0,10,0.00
2013-12-4,50.0,46.5,45.0,28.0,25.0,23.0,46,43,40,29.79,29.74,1,0,6,0.00
2013-12-14,74.0,56.8,44.0,35.0,23.0,-99.9,68,30,16,30.29,30.19,3,0,9,0.00
2013-12-15,81.0,61.9,45.0,29.0,22.9,17.0,38,24,12,30.27,30.10,2,0,6,0.00
2013-12-16,84.0,68.1,56.0,33.0,25.5,22.0,29,21,11,30.13,30.05,4,0,8,0.00
2013-12-17,83.0,67.8,59.0,37.0,29.6,24.0,34,25,14,30.13,30.01,3,0,7,0.00
2013-12-18,69.0,59.1,47.0,49.0,38.5,27.0,92,51,23,29.99,29.84,4,0,11,0.00
2013-12-19,57.0,49.5,42.0,47.0,42.6,36.0,94,79,48,29.82,29.66,3,0,13,0.01
2013-12-20,65.0,54.1,45.0,38.0,34.3,29.0,64,48,31,29.92,29.78,4,1,9,0.01